createdAt,value
2022-12-27T00:00:51.822Z,100.00
2022-12-27T00:04:03.928Z,100.00
2022-12-27T00:07:15.531Z,100.00
2022-12-27T00:10:24.361Z,100.00
2022-12-27T00:13:32.943Z,100.00
2022-12-27T00:16:42.879Z,100.00
2022-12-27T00:19:51.915Z,100.00
2022-12-27T00:23:01.932Z,100.00
2022-12-27T00:26:14.369Z,100.00
2022-12-27T00:29:25.628Z,100.00
2022-12-27T00:32:34.248Z,100.00
2022-12-27T00:35:43.928Z,100.00
2022-12-27T00:38:53.078Z,100.00
2022-12-27T00:42:03.166Z,100.00
2022-12-27T00:45:11.217Z,100.00
2022-12-27T00:48:18.110Z,100.00
2022-12-27T00:51:27.647Z,100.00
2022-12-27T00:54:37.053Z,100.00
2022-12-27T00:57:42.725Z,100.00
2022-12-27T01:00:50.297Z,100.00
2022-12-27T01:04:01.882Z,100.00
2022-12-27T01:07:09.743Z,100.00
2022-12-27T01:10:17.536Z,100.00
2022-12-27T01:13:28.132Z,100.00
2022-12-27T01:16:35.895Z,100.00
2022-12-27T01:19:42.853Z,100.00
2022-12-27T01:22:50.885Z,100.00
2022-12-27T01:26:06.061Z,100.00
2022-12-27T01:29:15.294Z,100.00
2022-12-27T01:32:26.154Z,100.00
2022-12-27T01:35:34.402Z,100.00
2022-12-27T01:38:40.479Z,100.00
2022-12-27T01:42:05.597Z,100.00
2022-12-27T01:45:34.289Z,100.00
2022-12-27T01:48:42.141Z,100.00
2022-12-27T01:51:56.759Z,100.00
2022-12-27T01:55:07.472Z,100.00
2022-12-27T01:58:33.931Z,100.00
2022-12-27T02:01:43.797Z,100.00
2022-12-27T02:04:52.181Z,100.00
2022-12-27T02:08:04.591Z,100.00
2022-12-27T02:11:11.922Z,100.00
2022-12-27T02:14:34.414Z,100.00
2022-12-27T02:17:41.505Z,100.00
2022-12-27T02:21:05.220Z,100.00
2022-12-27T02:24:30.116Z,100.00
2022-12-27T02:27:37.603Z,100.00
2022-12-27T02:30:46.899Z,100.00
2022-12-27T02:33:56.872Z,100.00
2022-12-27T02:37:06.017Z,100.00
2022-12-27T02:40:34.365Z,100.00
2022-12-27T02:44:00.374Z,100.00
2022-12-27T02:47:46.301Z,100.00
2022-12-27T02:51:31.235Z,100.00
2022-12-27T02:54:44.243Z,100.00
2022-12-27T02:57:59.798Z,100.00
2022-12-27T03:01:27.408Z,100.00
2022-12-27T03:04:42.882Z,100.00
2022-12-27T03:08:06.751Z,100.00
2022-12-27T03:11:32.746Z,100.00
2022-12-27T03:15:07.023Z,100.00
2022-12-27T03:18:19.540Z,100.00
2022-12-27T03:21:52.233Z,100.00
2022-12-27T03:25:16.765Z,100.00
2022-12-27T03:28:47.406Z,100.00
2022-12-27T03:32:16.630Z,100.00
2022-12-27T03:35:24.733Z,100.00
2022-12-27T03:38:38.927Z,100.00
2022-12-27T03:42:07.761Z,100.00
2022-12-27T03:45:17.406Z,100.00
2022-12-27T03:48:31.982Z,100.00
2022-12-27T03:51:41.473Z,100.00
2022-12-27T03:54:55.880Z,100.00
2022-12-27T03:58:02.154Z,100.00
2022-12-27T04:01:15.835Z,100.00
2022-12-27T04:04:26.036Z,100.00
2022-12-27T04:07:38.034Z,100.00
2022-12-27T04:11:05.889Z,100.00
2022-12-27T04:14:32.696Z,100.00
2022-12-27T04:17:58.163Z,100.00
2022-12-27T04:21:23.507Z,100.00
2022-12-27T04:24:51.784Z,100.00
2022-12-27T04:28:17.063Z,100.00
2022-12-27T04:31:46.334Z,100.00
2022-12-27T04:34:52.940Z,100.00
2022-12-27T04:38:00.484Z,100.00
2022-12-27T04:41:27.187Z,100.00
2022-12-27T04:44:47.195Z,100.00
2022-12-27T04:48:16.377Z,100.00
2022-12-27T04:52:03.681Z,100.00
2022-12-27T04:55:16.304Z,100.00
2022-12-27T04:58:24.209Z,100.00
2022-12-27T05:01:51.507Z,100.00
2022-12-27T05:05:00.731Z,100.00
2022-12-27T05:08:27.396Z,100.00
2022-12-27T05:11:53.094Z,100.00
2022-12-27T05:15:01.421Z,100.00
2022-12-27T05:18:09.173Z,100.00
2022-12-27T05:21:18.384Z,100.00
2022-12-27T05:24:46.478Z,100.00
2022-12-27T05:27:56.476Z,100.00
2022-12-27T05:31:07.565Z,100.00
2022-12-27T05:34:16.978Z,100.00
2022-12-27T05:37:24.484Z,100.00
2022-12-27T05:40:32.688Z,100.00
2022-12-27T05:43:42.490Z,100.00
2022-12-27T05:46:48.641Z,100.00
2022-12-27T05:49:58.469Z,100.00
2022-12-27T05:53:07.364Z,100.00
2022-12-27T05:56:20.887Z,100.00
2022-12-27T05:59:28.387Z,100.00
2022-12-27T06:02:38.067Z,100.00
2022-12-27T06:05:45.467Z,100.00
2022-12-27T06:08:56.477Z,100.00
2022-12-27T06:12:04.029Z,100.00
2022-12-27T06:15:12.310Z,100.00
2022-12-27T06:18:20.963Z,100.00
2022-12-27T06:21:30.579Z,100.00
2022-12-27T06:24:39.090Z,100.00
2022-12-27T06:27:46.629Z,100.00
2022-12-27T06:30:53.052Z,100.00
2022-12-27T06:33:59.387Z,100.00
2022-12-27T06:37:08.217Z,100.00
2022-12-27T06:40:15.473Z,100.00
2022-12-27T06:43:22.717Z,100.00
2022-12-27T06:46:28.578Z,100.00
2022-12-27T06:49:37.511Z,100.00
2022-12-27T06:52:43.644Z,100.00
2022-12-27T06:55:53.229Z,100.00
2022-12-27T06:58:59.400Z,100.00
2022-12-27T07:02:07.980Z,100.00
2022-12-27T07:05:16.476Z,100.00
2022-12-27T07:08:24.613Z,100.00
2022-12-27T07:11:34.517Z,100.00
2022-12-27T07:14:45.051Z,100.00
2022-12-27T07:17:56.570Z,100.00
2022-12-27T07:21:07.032Z,100.00
2022-12-27T07:24:13.101Z,100.00
2022-12-27T07:27:22.013Z,100.00
2022-12-27T07:30:28.896Z,100.00
2022-12-27T07:33:35.092Z,100.00
2022-12-27T07:36:43.881Z,100.00
2022-12-27T07:39:51.311Z,100.00
2022-12-27T07:42:58.497Z,100.00
2022-12-27T07:46:06.882Z,100.00
2022-12-27T07:49:18.018Z,100.00
2022-12-27T07:52:25.849Z,100.00
2022-12-27T07:55:33.020Z,100.00
2022-12-27T07:58:42.533Z,100.00
2022-12-27T08:02:07.699Z,100.00
2022-12-27T08:05:16.111Z,100.00
2022-12-27T08:08:23.459Z,100.00
2022-12-27T08:11:32.555Z,100.00
2022-12-27T08:14:41.994Z,100.00
2022-12-27T08:17:50.092Z,100.00
2022-12-27T08:20:57.534Z,100.00
2022-12-27T08:24:03.500Z,100.00
2022-12-27T08:27:09.796Z,100.00
2022-12-27T08:30:16.936Z,100.00
2022-12-27T08:33:24.964Z,100.00
2022-12-27T08:40:02.681Z,100.00
2022-12-27T08:43:11.020Z,100.00
2022-12-27T08:46:18.236Z,100.00
2022-12-27T08:49:27.539Z,100.00
2022-12-27T08:52:33.332Z,100.00
2022-12-27T08:55:42.754Z,100.00
2022-12-27T08:58:54.964Z,100.00
2022-12-27T09:02:02.982Z,100.00
2022-12-27T09:05:09.076Z,100.00
2022-12-27T09:08:16.266Z,100.00
2022-12-27T09:11:23.614Z,100.00
2022-12-27T09:14:32.025Z,100.00
2022-12-27T09:17:41.829Z,100.00
2022-12-27T09:20:49.494Z,100.00
2022-12-27T09:23:59.801Z,100.00
2022-12-27T09:27:08.698Z,100.00
2022-12-27T09:30:14.043Z,100.00
2022-12-27T09:33:22.182Z,100.00
2022-12-27T09:36:28.508Z,100.00
2022-12-27T09:39:35.566Z,100.00
2022-12-27T09:43:06.175Z,100.00
2022-12-27T09:46:24.126Z,98.68
2022-12-27T09:49:38.567Z,97.84
2022-12-27T09:52:52.410Z,96.47
2022-12-27T09:56:02.198Z,93.15
2022-12-27T09:59:17.343Z,91.32
2022-12-27T10:02:24.870Z,92.20
2022-12-27T10:05:37.355Z,92.69
2022-12-27T10:08:57.334Z,92.97
2022-12-27T10:12:08.002Z,90.25
2022-12-27T10:15:33.350Z,91.30
2022-12-27T10:18:48.352Z,92.60
2022-12-27T10:22:06.308Z,91.78
2022-12-27T10:25:14.913Z,91.63
2022-12-27T10:28:26.281Z,82.59
2022-12-27T10:31:34.387Z,82.51
2022-12-27T10:34:42.869Z,76.18
2022-12-27T10:37:51.726Z,75.80
2022-12-27T10:41:08.483Z,75.77
2022-12-27T10:44:17.281Z,76.03
2022-12-27T10:47:27.158Z,74.86
2022-12-27T10:50:37.196Z,70.89
2022-12-27T10:53:54.926Z,67.92
2022-12-27T10:57:22.692Z,65.96
2022-12-27T11:00:29.090Z,65.36
2022-12-27T11:03:36.857Z,66.44
2022-12-27T11:06:41.879Z,66.01
2022-12-27T11:09:51.046Z,66.55
2022-12-27T11:12:59.133Z,65.63
2022-12-27T11:16:06.733Z,64.81
2022-12-27T11:19:21.617Z,65.64
2022-12-27T11:22:29.660Z,67.20
2022-12-27T11:25:38.201Z,67.19
2022-12-27T11:28:53.336Z,68.06
2022-12-27T11:32:07.282Z,68.75
2022-12-27T11:35:17.482Z,68.43
2022-12-27T11:38:29.409Z,68.48
2022-12-27T11:41:42.772Z,71.24
2022-12-27T11:45:09.024Z,70.04
2022-12-27T11:48:32.051Z,69.34
2022-12-27T11:51:50.149Z,70.49
2022-12-27T11:55:00.721Z,69.36
2022-12-27T11:58:10.870Z,68.77
2022-12-27T12:01:34.054Z,68.13
2022-12-27T12:05:00.046Z,68.14
2022-12-27T12:08:06.867Z,69.05
2022-12-27T12:11:24.058Z,69.00
2022-12-27T12:14:30.159Z,68.50
2022-12-27T12:17:39.950Z,66.94
2022-12-27T12:20:50.468Z,66.85
2022-12-27T12:24:16.529Z,66.93
2022-12-27T12:27:24.091Z,66.91
2022-12-27T12:30:51.328Z,68.24
2022-12-27T12:34:14.881Z,68.13
2022-12-27T12:37:32.432Z,68.15
2022-12-27T12:40:47.571Z,67.25
2022-12-27T12:43:53.569Z,67.54
2022-12-27T12:47:24.646Z,68.13
2022-12-27T12:50:37.853Z,67.66
2022-12-27T12:54:02.937Z,67.01
2022-12-27T12:57:30.227Z,64.00
2022-12-27T13:00:44.959Z,65.65
2022-12-27T13:03:58.127Z,66.38
2022-12-27T13:07:08.253Z,66.45
2022-12-27T13:10:32.543Z,66.10
2022-12-27T13:13:57.242Z,65.86
2022-12-27T13:17:07.061Z,65.74
2022-12-27T13:20:30.381Z,65.67
2022-12-27T13:23:56.508Z,65.58
2022-12-27T13:27:11.040Z,66.18
2022-12-27T13:30:25.074Z,66.81
2022-12-27T13:33:39.544Z,67.28
2022-12-27T13:36:47.213Z,66.57
2022-12-27T13:40:00.513Z,66.80
2022-12-27T13:43:28.750Z,66.73
2022-12-27T13:46:51.046Z,66.53
2022-12-27T13:50:06.325Z,67.13
2022-12-27T13:53:21.185Z,67.23
2022-12-27T13:56:53.921Z,65.91
2022-12-27T14:00:13.881Z,66.15
2022-12-27T14:03:22.867Z,68.30
2022-12-27T14:06:47.603Z,67.01
2022-12-27T14:10:05.013Z,67.43
2022-12-27T14:13:12.704Z,69.12
2022-12-27T14:16:31.259Z,68.39
2022-12-27T14:19:56.434Z,69.27
2022-12-27T14:23:15.965Z,67.16
2022-12-27T14:26:22.880Z,67.46
2022-12-27T14:29:51.188Z,67.08
2022-12-27T14:33:16.009Z,65.87
2022-12-27T14:36:50.252Z,66.75
2022-12-27T14:40:05.510Z,66.02
2022-12-27T14:43:29.908Z,66.63
2022-12-27T14:46:43.792Z,67.46
2022-12-27T14:50:05.948Z,67.83
2022-12-27T14:53:32.147Z,68.10
2022-12-27T14:56:46.135Z,68.63
2022-12-27T15:00:10.747Z,69.20
2022-12-27T15:03:17.687Z,69.02
2022-12-27T15:06:26.751Z,67.43
2022-12-27T15:09:52.579Z,68.36
2022-12-27T15:13:18.015Z,68.95
2022-12-27T15:16:43.436Z,67.93
2022-12-27T15:20:04.020Z,69.91
2022-12-27T15:23:32.579Z,68.99
2022-12-27T15:26:47.019Z,67.98
2022-12-27T15:30:14.443Z,70.33
2022-12-27T15:33:29.692Z,70.36
2022-12-27T15:36:44.550Z,69.64
2022-12-27T15:39:52.156Z,69.35
2022-12-27T15:43:18.997Z,69.92
2022-12-27T15:46:43.704Z,70.70
2022-12-27T15:49:54.246Z,71.35
2022-12-27T15:53:00.751Z,70.83
2022-12-27T15:56:26.795Z,69.57
2022-12-27T15:59:39.911Z,69.81
2022-12-27T16:02:51.007Z,70.54
2022-12-27T16:05:58.338Z,69.91
2022-12-27T16:09:19.831Z,69.79
2022-12-27T16:12:41.162Z,69.88
2022-12-27T16:15:49.206Z,69.35
2022-12-27T16:19:14.208Z,70.08
2022-12-27T16:22:24.653Z,70.42
2022-12-27T16:25:32.695Z,71.47
2022-12-27T16:28:39.293Z,73.11
2022-12-27T16:31:49.822Z,72.26
2022-12-27T16:34:56.845Z,72.38
2022-12-27T16:38:06.205Z,71.12
2022-12-27T16:41:18.989Z,69.46
2022-12-27T16:44:26.768Z,68.13
2022-12-27T16:47:36.760Z,67.54
2022-12-27T16:50:56.685Z,67.43
2022-12-27T16:54:21.399Z,66.06
2022-12-27T16:57:29.698Z,66.10
2022-12-27T17:00:43.092Z,66.98
2022-12-27T17:03:52.092Z,67.47
2022-12-27T17:07:01.323Z,67.70
2022-12-27T17:10:27.650Z,67.18
2022-12-27T17:13:34.782Z,67.61
2022-12-27T17:16:50.977Z,68.43
2022-12-27T17:20:04.208Z,68.52
2022-12-27T17:23:12.019Z,68.90
2022-12-27T17:26:22.414Z,69.12
2022-12-27T17:29:29.917Z,68.96
2022-12-27T17:32:49.382Z,69.87
2022-12-27T17:36:04.316Z,70.08
2022-12-27T17:39:25.816Z,70.44
2022-12-27T17:42:57.729Z,72.10
2022-12-27T17:46:12.755Z,72.62
2022-12-27T17:49:27.603Z,73.37
2022-12-27T17:52:53.011Z,73.83
2022-12-27T17:56:33.187Z,75.49
2022-12-27T17:59:43.489Z,75.66
2022-12-27T18:02:49.254Z,75.83
2022-12-27T18:05:57.000Z,77.17
2022-12-27T18:09:05.618Z,78.29
2022-12-27T18:12:34.473Z,78.68
2022-12-27T18:15:44.093Z,80.19
2022-12-27T18:18:51.359Z,81.17
2022-12-27T18:21:58.160Z,83.10
2022-12-27T18:25:03.237Z,81.90
2022-12-27T18:28:17.219Z,82.24
2022-12-27T18:31:28.629Z,82.01
2022-12-27T18:34:39.435Z,82.43
2022-12-27T18:37:44.103Z,83.14
2022-12-27T18:41:06.967Z,83.55
2022-12-27T18:44:15.067Z,84.27
2022-12-27T18:47:24.014Z,85.50
2022-12-27T18:50:30.705Z,86.29
2022-12-27T18:53:36.473Z,87.97
2022-12-27T18:56:43.819Z,89.47
2022-12-27T19:00:02.662Z,90.03
2022-12-27T19:03:17.084Z,90.85
2022-12-27T19:06:23.029Z,91.59
2022-12-27T19:09:34.585Z,91.86
2022-12-27T19:12:42.671Z,91.43
2022-12-27T19:15:49.398Z,91.73
2022-12-27T19:18:55.376Z,91.86
2022-12-27T19:22:04.109Z,92.50
2022-12-27T19:25:29.838Z,92.16
2022-12-27T19:28:37.517Z,91.19
2022-12-27T19:31:44.746Z,93.84
2022-12-27T19:34:55.275Z,94.83
2022-12-27T19:37:59.021Z,95.08
2022-12-27T19:41:04.451Z,95.87
2022-12-27T19:44:11.481Z,94.86
2022-12-27T19:47:16.138Z,94.53
2022-12-27T19:50:22.768Z,94.77
2022-12-27T19:53:35.615Z,95.31
2022-12-27T19:56:39.842Z,97.06
2022-12-27T19:59:46.548Z,100.00
2022-12-27T20:02:51.655Z,100.00
2022-12-27T20:06:12.473Z,100.00
2022-12-27T20:09:21.732Z,100.00
2022-12-27T20:12:29.410Z,100.00
2022-12-27T20:15:38.492Z,100.00
2022-12-27T20:18:45.690Z,100.00
2022-12-27T20:21:53.649Z,100.00
2022-12-27T20:24:59.848Z,100.00
2022-12-27T20:28:06.648Z,100.00
2022-12-27T20:31:15.379Z,97.51
2022-12-27T20:34:23.188Z,96.57
2022-12-27T20:37:29.590Z,96.77
2022-12-27T20:40:36.499Z,94.39
2022-12-27T20:43:46.335Z,93.67
2022-12-27T20:46:53.717Z,93.38
2022-12-27T20:50:01.064Z,94.87
2022-12-27T20:53:06.695Z,95.99
2022-12-27T20:56:15.322Z,100.00
2022-12-27T20:59:24.459Z,100.00
2022-12-27T21:02:30.887Z,100.00
2022-12-27T21:05:38.143Z,100.00
2022-12-27T21:08:47.983Z,98.66
2022-12-27T21:11:54.137Z,97.09
2022-12-27T21:15:00.606Z,94.96
2022-12-27T21:18:07.057Z,92.86
2022-12-27T21:21:17.960Z,92.42
2022-12-27T21:24:27.635Z,92.15
2022-12-27T21:27:35.020Z,92.48
2022-12-27T21:30:38.856Z,93.10
2022-12-27T21:33:45.319Z,94.36
2022-12-27T21:36:52.610Z,96.13
2022-12-27T21:39:56.064Z,95.91
2022-12-27T21:43:04.965Z,93.67
2022-12-27T21:46:12.128Z,92.68
2022-12-27T21:49:18.202Z,92.65
2022-12-27T21:52:23.556Z,92.84
2022-12-27T21:55:26.546Z,93.38
2022-12-27T21:58:32.937Z,93.77
2022-12-27T22:01:50.610Z,92.09
2022-12-27T22:04:58.982Z,91.75
2022-12-27T22:08:02.823Z,92.29
2022-12-27T22:11:09.361Z,92.72
2022-12-27T22:14:14.972Z,93.70
2022-12-27T22:17:19.654Z,92.78
2022-12-27T22:20:23.115Z,90.56
2022-12-27T22:23:34.885Z,91.06
2022-12-27T22:26:40.939Z,90.22
2022-12-27T22:29:46.051Z,90.52
2022-12-27T22:32:50.479Z,91.97
2022-12-27T22:36:02.781Z,92.02
2022-12-27T22:39:08.666Z,93.40
2022-12-27T22:42:14.828Z,94.10
2022-12-27T22:45:23.245Z,94.89
2022-12-27T22:48:29.468Z,94.46
2022-12-27T22:51:35.420Z,93.74
2022-12-27T22:55:04.991Z,94.09
2022-12-27T22:58:08.865Z,95.23
2022-12-27T23:01:16.487Z,100.00
2022-12-27T23:04:23.762Z,100.00
2022-12-27T23:08:04.989Z,100.00
2022-12-27T23:11:02.220Z,100.00
2022-12-27T23:14:11.531Z,100.00
2022-12-27T23:17:17.975Z,100.00
2022-12-27T23:20:24.405Z,100.00
2022-12-27T23:23:29.967Z,100.00
2022-12-27T23:26:37.447Z,100.00
2022-12-27T23:29:42.341Z,100.00
2022-12-27T23:32:52.491Z,100.00
2022-12-27T23:35:57.648Z,100.00
2022-12-27T23:39:05.240Z,100.00
2022-12-27T23:42:11.626Z,100.00
2022-12-27T23:45:19.492Z,100.00
2022-12-27T23:48:27.538Z,100.00
2022-12-27T23:51:33.668Z,100.00
2022-12-27T23:54:43.390Z,100.00
2022-12-27T23:57:51.756Z,100.00
